Elkhart, Indiana
Current Conditions -  °F | °C
As of 3:50 PM on Thursday 23 Oct 2014 (Local Time) from KEKM Reporting Station
Clear Clear  
Wind Chill: 57°   Ceiling: Unl
Heat Index: 57°   Visibility: 10mi
Dew Point: 37°   Wind: 3mph
Humidity: 48%   Direction: 200°SSW
Pressure: 30.15"   Gusts: NA
Location:  41.69°N, 85.97°W
Report Text: KEKM 231950Z 20003KT 10SM CLR 14/03 A3015 RMK AO2
Loading
Personal Weather Stations






























Interactive Weather Map
Tropical Storm Tracking
New forecast layout! Learn more

10-Day Weather Forecast

Advertisements
Track Severe Weather on mobile